48X weather

Airport Manatee Airport
Palmetto, Florida, United States

Public forecast

Using degrees Fahrenheit for public forecast. Weather courtesy of forecast.io.

METAR (pilot weather report)

Closest report is Albert Whitted Airport, 9.3 nm (17.2 km) NW. Retrieved 2019/09/17 04:53 UTC (24 minutes ago):

KSPG 170453Z AUTO 34004KT 10SM CLR 28/24 A2993 RMK AO2 SLP133 T02830239 403280261

TAF (pilot weather forecast)

Closest forecast is Mac Dill Air Force Base, 12.4 nm (23.0 km) N. Retrieved 2019/09/17 01:13 UTC (4 hours ago):

TAF KMCF 170100Z 1701/1807 VRB06KT 9999 FEW030 QNH2993INS BECMG 1715/1716 01006KT 9999 FEW050 QNH2991INS TEMPO 1720/1723 VRB10G15KT 9999 VCTS SCT030CB BECMG 1801/1802 VRB06KT 9999 FEW020 QNH2990INS TX30/1720Z TN24/1707Z